createdAt,value
2023-02-25T00:02:02.602Z,65.09
2023-02-25T00:04:30.436Z,64.04
2023-02-25T00:07:05.632Z,63.60
2023-02-25T00:09:32.300Z,64.14
2023-02-25T00:11:59.469Z,64.63
2023-02-25T00:14:26.727Z,65.33
2023-02-25T00:17:05.996Z,66.09
2023-02-25T00:19:33.227Z,66.65
2023-02-25T00:22:17.038Z,67.09
2023-02-25T00:24:54.921Z,66.82
2023-02-25T00:27:32.708Z,65.39
2023-02-25T00:30:06.815Z,64.22
2023-02-25T00:32:33.594Z,63.87
2023-02-25T00:37:41.219Z,63.44
2023-02-25T00:43:02.281Z,63.10
2023-02-25T00:45:41.634Z,63.96
2023-02-25T00:48:12.858Z,64.21
2023-02-25T00:50:56.385Z,64.57
2023-02-25T00:53:31.724Z,64.40
2023-02-25T00:56:07.343Z,64.23
2023-02-25T00:58:44.396Z,64.16
2023-02-25T01:01:29.891Z,64.67
2023-02-25T01:04:06.276Z,64.89
2023-02-25T01:06:37.613Z,65.71
2023-02-25T01:09:08.880Z,65.29
2023-02-25T01:11:48.285Z,65.08
2023-02-25T01:14:29.677Z,65.57
2023-02-25T01:17:24.350Z,65.34
2023-02-25T01:20:05.807Z,65.34
2023-02-25T01:25:30.229Z,65.71
2023-02-25T01:31:00.746Z,65.44
2023-02-25T01:33:29.331Z,65.80
2023-02-25T01:35:56.334Z,65.82
2023-02-25T01:38:29.545Z,66.74
2023-02-25T01:41:09.264Z,66.97
2023-02-25T01:44:03.219Z,66.48
2023-02-25T01:46:36.059Z,67.11
2023-02-25T01:49:11.413Z,66.50
2023-02-25T01:51:45.761Z,66.14
2023-02-25T01:54:16.500Z,65.85
2023-02-25T01:57:03.495Z,65.63
2023-02-25T01:59:31.736Z,65.92
2023-02-25T02:01:58.736Z,65.95
2023-02-25T02:04:38.018Z,65.67
2023-02-25T02:07:12.379Z,65.91
2023-02-25T02:10:00.728Z,65.16
2023-02-25T02:12:52.853Z,64.89
2023-02-25T02:15:24.944Z,65.39
2023-02-25T02:18:04.168Z,64.95
2023-02-25T02:20:55.165Z,64.77
2023-02-25T02:23:54.368Z,65.20
2023-02-25T02:26:51.340Z,64.33
2023-02-25T02:32:57.972Z,64.22
2023-02-25T02:38:38.785Z,65.23
2023-02-25T02:41:42.019Z,64.85
2023-02-25T02:44:34.113Z,64.72
2023-02-25T02:47:25.927Z,65.17
2023-02-25T02:50:07.712Z,65.19
2023-02-25T02:53:05.657Z,65.08
2023-02-25T02:55:39.327Z,65.63
2023-02-25T02:58:46.000Z,65.06
2023-02-25T03:01:18.119Z,64.38
2023-02-25T03:03:51.698Z,64.74
2023-02-25T03:09:30.214Z,64.78
2023-02-25T03:12:28.964Z,64.90
2023-02-25T03:15:02.927Z,64.48
2023-02-25T03:17:56.213Z,64.39
2023-02-25T03:20:31.722Z,64.46
2023-02-25T03:23:12.778Z,64.56
2023-02-25T03:26:12.626Z,64.54
2023-02-25T03:28:46.532Z,64.19
2023-02-25T03:32:00.415Z,63.86
2023-02-25T03:34:46.541Z,63.65
2023-02-25T03:37:30.389Z,63.79
2023-02-25T03:40:06.707Z,64.33
2023-02-25T03:42:53.321Z,64.40
2023-02-25T03:45:40.812Z,64.78
2023-02-25T03:48:09.310Z,65.52
2023-02-25T03:50:45.897Z,65.33
2023-02-25T03:53:44.959Z,65.57
2023-02-25T03:56:24.196Z,65.68
2023-02-25T03:59:02.097Z,65.60
2023-02-25T04:01:34.886Z,65.66
2023-02-25T04:04:18.577Z,66.38
2023-02-25T04:07:14.945Z,66.27
2023-02-25T04:10:03.626Z,66.91
2023-02-25T04:12:40.497Z,67.42
2023-02-25T04:15:39.943Z,67.53
2023-02-25T04:18:19.444Z,67.67
2023-02-25T04:23:41.582Z,69.06
2023-02-25T04:26:36.493Z,67.80
2023-02-25T04:29:13.603Z,67.49
2023-02-25T04:31:49.767Z,68.06
2023-02-25T04:34:20.185Z,68.47
2023-02-25T04:36:47.561Z,68.79
2023-02-25T04:39:16.107Z,68.31
2023-02-25T04:41:46.227Z,68.12
2023-02-25T04:44:13.238Z,68.15
2023-02-25T04:46:48.517Z,68.50
2023-02-25T04:49:26.620Z,68.36
2023-02-25T04:51:55.454Z,68.53
2023-02-25T04:54:31.623Z,69.40
2023-02-25T04:57:09.544Z,68.95
2023-02-25T04:59:46.024Z,69.44
2023-02-25T05:02:22.312Z,69.09
2023-02-25T05:05:04.423Z,68.37
2023-02-25T05:07:40.278Z,68.35
2023-02-25T05:10:18.934Z,69.20
2023-02-25T05:13:04.044Z,69.20
2023-02-25T05:18:51.085Z,68.99
2023-02-25T05:21:32.973Z,69.96
2023-02-25T05:24:09.100Z,69.30
2023-02-25T05:26:39.441Z,69.49
2023-02-25T05:29:14.533Z,68.56
2023-02-25T05:32:01.878Z,67.29
2023-02-25T05:34:39.906Z,67.08
2023-02-25T05:37:07.672Z,67.84
2023-02-25T05:39:50.325Z,66.67
2023-02-25T05:42:25.095Z,67.85
2023-02-25T05:44:53.061Z,67.95
2023-02-25T05:47:25.069Z,67.34
2023-02-25T05:49:55.454Z,68.38
2023-02-25T05:53:02.413Z,68.45
2023-02-25T05:55:37.720Z,68.24
2023-02-25T05:58:45.784Z,68.14
2023-02-25T06:01:19.305Z,67.12
2023-02-25T06:03:47.676Z,67.02
2023-02-25T06:06:24.317Z,68.58
2023-02-25T06:09:01.095Z,67.71
2023-02-25T06:11:43.075Z,67.84
2023-02-25T06:14:14.790Z,68.70
2023-02-25T06:17:10.050Z,68.09
2023-02-25T06:19:48.453Z,69.61
2023-02-25T06:22:25.176Z,70.54
2023-02-25T06:24:55.646Z,69.95
2023-02-25T06:27:28.083Z,70.08
2023-02-25T06:30:00.401Z,68.91
2023-02-25T06:32:41.118Z,69.26
2023-02-25T06:35:16.822Z,68.64
2023-02-25T06:37:46.418Z,68.64
2023-02-25T06:40:30.511Z,68.27
2023-02-25T06:42:57.339Z,68.81
2023-02-25T06:45:31.142Z,68.74
2023-02-25T06:47:58.916Z,68.70
2023-02-25T06:50:32.422Z,68.98
2023-02-25T06:53:12.092Z,69.01
2023-02-25T06:55:52.633Z,68.89
2023-02-25T06:58:38.387Z,68.09
2023-02-25T07:01:32.053Z,68.64
2023-02-25T07:04:25.960Z,69.34
2023-02-25T07:06:58.758Z,69.43
2023-02-25T07:09:37.549Z,69.96
2023-02-25T07:12:19.812Z,69.92
2023-02-25T07:15:21.499Z,70.18
2023-02-25T07:17:48.955Z,70.23
2023-02-25T07:20:16.424Z,70.07
2023-02-25T07:22:46.240Z,70.12
2023-02-25T07:26:08.954Z,70.33
2023-02-25T07:28:08.420Z,70.10
2023-02-25T07:30:38.600Z,70.46
2023-02-25T07:33:08.277Z,70.60
2023-02-25T07:35:40.182Z,70.45
2023-02-25T07:38:15.957Z,70.41
2023-02-25T07:41:07.210Z,70.23
2023-02-25T07:43:59.650Z,70.15
2023-02-25T07:46:37.635Z,71.41
2023-02-25T07:49:12.705Z,71.35
2023-02-25T07:51:43.561Z,71.77
2023-02-25T07:54:31.021Z,71.38
2023-02-25T07:59:46.817Z,71.30
2023-02-25T08:02:41.429Z,70.73
2023-02-25T08:07:54.747Z,71.51
2023-02-25T08:10:23.806Z,70.59
2023-02-25T08:12:53.061Z,70.33
2023-02-25T08:15:23.854Z,69.97
2023-02-25T08:17:54.772Z,69.45
2023-02-25T08:20:29.661Z,69.51
2023-02-25T08:23:02.321Z,69.49
2023-02-25T08:25:32.201Z,69.04
2023-02-25T08:27:58.958Z,68.85
2023-02-25T08:30:25.994Z,69.08
2023-02-25T08:33:07.852Z,68.88
2023-02-25T08:35:36.076Z,68.50
2023-02-25T08:38:22.111Z,67.95
2023-02-25T08:40:49.169Z,68.03
2023-02-25T08:43:17.879Z,67.54
2023-02-25T08:45:54.556Z,67.07
2023-02-25T08:48:22.715Z,66.53
2023-02-25T08:50:53.890Z,66.13
2023-02-25T08:53:20.720Z,66.00
2023-02-25T08:55:47.633Z,65.25
2023-02-25T08:58:14.711Z,65.23
2023-02-25T09:00:44.070Z,65.37
2023-02-25T09:03:17.380Z,65.07
2023-02-25T09:05:51.482Z,64.55
2023-02-25T09:08:18.473Z,64.74
2023-02-25T09:10:50.618Z,64.63
2023-02-25T09:16:01.696Z,64.24
2023-02-25T09:18:32.099Z,64.38
2023-02-25T09:21:01.450Z,64.02
2023-02-25T09:23:28.702Z,63.62
2023-02-25T09:26:02.910Z,63.49
2023-02-25T09:28:39.878Z,63.62
2023-02-25T09:31:06.700Z,63.89
2023-02-25T09:33:56.786Z,63.76
2023-02-25T09:36:29.170Z,63.77
2023-02-25T09:39:10.969Z,63.83
2023-02-25T09:41:59.090Z,64.25
2023-02-25T09:44:41.940Z,63.85
2023-02-25T09:47:26.696Z,63.60
2023-02-25T09:50:25.130Z,63.13
2023-02-25T09:53:09.531Z,63.77
2023-02-25T09:55:49.051Z,63.62
2023-02-25T09:59:08.362Z,63.39
2023-02-25T10:02:10.835Z,63.16
2023-02-25T10:04:47.953Z,62.20
2023-02-25T10:07:25.634Z,62.63
2023-02-25T10:10:10.706Z,62.69
2023-02-25T10:13:11.834Z,62.53
2023-02-25T10:15:57.776Z,61.96
2023-02-25T10:19:09.128Z,61.25
2023-02-25T10:22:02.894Z,62.12
2023-02-25T10:25:03.229Z,62.33
2023-02-25T10:27:44.509Z,62.10
2023-02-25T10:30:18.478Z,61.55
2023-02-25T10:32:50.260Z,61.90
2023-02-25T10:35:26.134Z,61.22
2023-02-25T10:37:58.680Z,61.07
2023-02-25T10:40:31.637Z,60.17
2023-02-25T10:43:19.115Z,59.87
2023-02-25T10:45:51.184Z,60.88
2023-02-25T10:48:35.014Z,60.71
2023-02-25T10:51:20.413Z,61.22
2023-02-25T10:54:02.396Z,60.41
2023-02-25T10:56:48.671Z,61.00
2023-02-25T10:59:37.452Z,60.42
2023-02-25T11:02:35.116Z,60.54
2023-02-25T11:05:21.732Z,61.07
2023-02-25T11:07:53.747Z,61.06
2023-02-25T11:10:23.723Z,61.08
2023-02-25T11:12:56.798Z,60.91
2023-02-25T11:15:46.067Z,60.97
2023-02-25T11:18:31.143Z,60.88
2023-02-25T11:21:02.200Z,61.10
2023-02-25T11:23:44.765Z,61.16
2023-02-25T11:26:28.126Z,61.22
2023-02-25T11:29:02.185Z,61.40
2023-02-25T11:31:47.140Z,61.76
2023-02-25T11:34:51.850Z,60.92
2023-02-25T11:37:44.653Z,61.19
2023-02-25T11:40:44.309Z,61.27
2023-02-25T11:46:25.102Z,61.54
2023-02-25T11:49:37.518Z,61.53
2023-02-25T11:52:43.916Z,61.69
2023-02-25T11:55:36.777Z,61.11
2023-02-25T11:58:38.067Z,61.22
2023-02-25T12:01:54.119Z,61.04
2023-02-25T12:05:00.414Z,62.17
2023-02-25T12:08:05.151Z,61.64
2023-02-25T12:10:54.823Z,61.16
2023-02-25T12:13:51.852Z,60.85
2023-02-25T12:16:44.632Z,60.47
2023-02-25T12:19:26.413Z,61.04
2023-02-25T12:22:34.533Z,61.95
2023-02-25T12:25:14.857Z,61.39
2023-02-25T12:28:11.591Z,61.85
2023-02-25T12:31:16.212Z,61.46
2023-02-25T12:34:36.659Z,61.25
2023-02-25T12:37:29.676Z,61.33
2023-02-25T12:40:15.202Z,61.06
2023-02-25T12:43:16.454Z,60.81
2023-02-25T12:46:00.046Z,61.15
2023-02-25T12:49:07.789Z,61.13
2023-02-25T12:52:03.138Z,61.13
2023-02-25T12:55:13.083Z,61.53
2023-02-25T12:57:56.644Z,62.07
2023-02-25T13:01:12.079Z,60.82
2023-02-25T13:04:24.538Z,61.03
2023-02-25T13:07:21.735Z,61.05
2023-02-25T13:10:09.157Z,60.78
2023-02-25T13:13:02.188Z,60.42
2023-02-25T13:16:04.484Z,61.22
2023-02-25T13:18:52.918Z,60.85
2023-02-25T13:21:23.330Z,60.58
2023-02-25T13:24:02.065Z,60.80
2023-02-25T13:27:13.935Z,60.50
2023-02-25T13:30:20.049Z,60.39
2023-02-25T13:33:25.060Z,61.23
2023-02-25T13:36:39.803Z,61.27
2023-02-25T13:39:31.975Z,61.15
2023-02-25T13:42:26.411Z,61.39
2023-02-25T13:45:38.274Z,61.46
2023-02-25T13:48:35.025Z,60.65
2023-02-25T13:51:07.937Z,61.00
2023-02-25T13:54:25.994Z,60.36
2023-02-25T13:57:14.712Z,59.86
2023-02-25T14:00:24.674Z,61.50
2023-02-25T14:03:43.855Z,61.38
2023-02-25T14:06:50.362Z,61.12
2023-02-25T14:09:56.759Z,60.82
2023-02-25T14:12:54.866Z,60.62
2023-02-25T14:16:04.893Z,60.36
2023-02-25T14:18:57.330Z,60.13
2023-02-25T14:21:37.680Z,60.32
2023-02-25T14:24:31.348Z,59.94
2023-02-25T14:27:32.261Z,60.86
2023-02-25T14:30:19.628Z,60.38
2023-02-25T14:33:11.496Z,61.75
2023-02-25T14:35:59.729Z,61.24
2023-02-25T14:38:37.359Z,61.58
2023-02-25T14:41:36.922Z,61.13
2023-02-25T14:44:36.655Z,60.71
2023-02-25T14:47:41.117Z,62.75
2023-02-25T14:50:43.693Z,61.09
2023-02-25T14:53:50.212Z,60.43
2023-02-25T14:56:48.025Z,60.87
2023-02-25T14:59:34.623Z,61.10
2023-02-25T15:02:35.106Z,61.29
2023-02-25T15:05:34.371Z,61.44
2023-02-25T15:08:26.105Z,63.60
2023-02-25T15:11:13.975Z,62.15
2023-02-25T15:14:12.637Z,61.39
2023-02-25T15:17:04.479Z,61.27
2023-02-25T15:20:01.206Z,60.97
2023-02-25T15:22:33.160Z,62.82
2023-02-25T15:25:33.705Z,62.04
2023-02-25T15:28:12.892Z,62.82
2023-02-25T15:31:30.355Z,61.57
2023-02-25T15:34:47.246Z,62.30
2023-02-25T15:37:31.932Z,61.45
2023-02-25T15:40:25.732Z,61.69
2023-02-25T15:42:59.744Z,61.42
2023-02-25T15:45:43.903Z,63.80
2023-02-25T15:48:11.839Z,62.00
2023-02-25T15:50:52.959Z,62.29
2023-02-25T15:53:25.823Z,61.96
2023-02-25T15:56:08.610Z,62.40
2023-02-25T15:58:40.009Z,62.14
2023-02-25T16:01:42.735Z,61.00
2023-02-25T16:04:50.902Z,61.83
2023-02-25T16:07:26.540Z,61.86
2023-02-25T16:12:59.189Z,62.98
2023-02-25T16:15:43.492Z,62.70
2023-02-25T16:18:37.133Z,63.83
2023-02-25T16:24:04.731Z,64.03
2023-02-25T16:27:05.984Z,64.70
2023-02-25T16:29:50.642Z,62.06
2023-02-25T16:32:33.238Z,62.61
2023-02-25T16:35:03.234Z,66.04
2023-02-25T16:37:44.555Z,64.99
2023-02-25T16:40:24.645Z,66.98
2023-02-25T16:42:53.130Z,64.40
2023-02-25T16:45:45.680Z,64.02
2023-02-25T16:48:20.588Z,64.08
2023-02-25T16:50:49.348Z,65.70
2023-02-25T16:53:24.156Z,66.64
2023-02-25T16:56:00.203Z,64.73
2023-02-25T16:58:29.405Z,65.24
2023-02-25T17:03:47.585Z,64.65
2023-02-25T17:06:25.784Z,67.31
2023-02-25T17:08:53.977Z,67.84
2023-02-25T17:11:32.805Z,66.35
2023-02-25T17:14:05.192Z,65.74
2023-02-25T17:16:44.549Z,68.12
2023-02-25T17:19:17.133Z,68.75
2023-02-25T17:21:50.753Z,68.74
2023-02-25T17:24:20.655Z,68.83
2023-02-25T17:27:18.468Z,69.19
2023-02-25T17:29:45.938Z,68.77
2023-02-25T17:32:30.708Z,67.81
2023-02-25T17:35:03.707Z,66.82
2023-02-25T17:37:31.285Z,69.22
2023-02-25T17:40:14.575Z,67.14
2023-02-25T17:42:45.120Z,66.00
2023-02-25T17:46:13.727Z,67.55
2023-02-25T17:49:00.119Z,68.60
2023-02-25T17:51:31.722Z,67.98
2023-02-25T17:54:06.303Z,68.25
2023-02-25T17:56:39.243Z,68.63
2023-02-25T17:59:15.395Z,68.46
2023-02-25T18:02:03.135Z,68.46
2023-02-25T18:04:42.587Z,68.34
2023-02-25T18:07:21.736Z,65.84
2023-02-25T18:09:59.073Z,66.35
2023-02-25T18:13:11.990Z,67.51
2023-02-25T18:18:29.012Z,67.52
2023-02-25T18:21:05.827Z,67.04
2023-02-25T18:27:07.221Z,67.08
2023-02-25T18:29:35.730Z,68.04
2023-02-25T18:34:47.610Z,68.39
2023-02-25T18:37:22.874Z,67.72
2023-02-25T18:39:58.056Z,68.85
2023-02-25T18:42:31.370Z,68.94
2023-02-25T18:45:15.172Z,67.80
2023-02-25T18:47:46.682Z,69.13
2023-02-25T18:50:30.939Z,68.94
2023-02-25T18:53:13.332Z,68.63
2023-02-25T18:55:51.228Z,69.34
2023-02-25T18:58:28.596Z,69.43
2023-02-25T19:01:05.494Z,69.10
2023-02-25T19:03:52.078Z,69.83
2023-02-25T19:06:46.773Z,70.67
2023-02-25T19:09:17.771Z,70.72
2023-02-25T19:11:57.022Z,71.12
2023-02-25T19:14:36.561Z,71.91
2023-02-25T19:17:15.203Z,71.46
2023-02-25T19:19:50.845Z,70.24
2023-02-25T19:22:31.721Z,71.70
2023-02-25T19:25:00.528Z,74.29
2023-02-25T19:27:34.108Z,75.06
2023-02-25T19:30:03.809Z,74.69
2023-02-25T19:32:30.732Z,73.88
2023-02-25T19:34:59.738Z,73.78
2023-02-25T19:37:28.007Z,74.72
2023-02-25T19:40:05.707Z,74.45
2023-02-25T19:42:33.453Z,72.96
2023-02-25T19:45:05.928Z,74.65
2023-02-25T19:47:32.896Z,73.94
2023-02-25T19:49:59.762Z,73.23
2023-02-25T19:52:30.518Z,72.75
2023-02-25T19:55:19.024Z,73.29
2023-02-25T19:57:53.031Z,73.98
2023-02-25T20:00:42.205Z,73.10
2023-02-25T20:03:09.663Z,74.56
2023-02-25T20:05:56.397Z,73.47
2023-02-25T20:08:33.194Z,72.84
2023-02-25T20:11:20.636Z,73.07
2023-02-25T20:14:05.513Z,72.42
2023-02-25T20:16:54.404Z,71.09
2023-02-25T20:19:44.689Z,72.44
2023-02-25T20:22:40.834Z,72.96
2023-02-25T20:25:16.782Z,72.13
2023-02-25T20:27:54.122Z,71.73
2023-02-25T20:30:24.813Z,73.99
2023-02-25T20:33:03.707Z,76.18
2023-02-25T20:35:40.840Z,75.59
2023-02-25T20:38:39.787Z,75.40
2023-02-25T20:41:23.523Z,74.87
2023-02-25T20:43:55.193Z,71.09
2023-02-25T20:46:34.187Z,73.11
2023-02-25T20:49:07.086Z,73.40
2023-02-25T20:51:40.208Z,73.95
2023-02-25T20:54:07.522Z,71.31
2023-02-25T20:56:37.962Z,71.18
2023-02-25T20:59:05.001Z,73.24
2023-02-25T21:01:38.386Z,71.87
2023-02-25T21:04:13.891Z,75.81
2023-02-25T21:06:47.226Z,77.00
2023-02-25T21:09:26.241Z,75.92
2023-02-25T21:11:53.490Z,78.04
2023-02-25T21:14:30.233Z,78.64
2023-02-25T21:17:06.076Z,79.05
2023-02-25T21:19:40.469Z,79.25
2023-02-25T21:22:49.120Z,79.37
2023-02-25T21:25:24.493Z,79.68
2023-02-25T21:27:54.491Z,76.12
2023-02-25T21:30:30.708Z,78.70
2023-02-25T21:33:03.487Z,79.36
2023-02-25T21:35:53.016Z,79.78
2023-02-25T21:38:47.173Z,79.85
2023-02-25T21:41:26.916Z,80.63
2023-02-25T21:43:57.656Z,80.71
2023-02-25T21:46:35.898Z,80.62
2023-02-25T21:52:00.001Z,71.99
2023-02-25T21:54:44.949Z,71.65
2023-02-25T21:57:11.789Z,70.08
2023-02-25T21:59:38.835Z,72.32
2023-02-25T22:02:05.698Z,72.47
2023-02-25T22:04:32.685Z,74.25
2023-02-25T22:06:59.474Z,71.67
2023-02-25T22:09:42.663Z,74.83
2023-02-25T22:12:09.488Z,76.09
2023-02-25T22:15:01.570Z,73.93
2023-02-25T22:20:28.789Z,72.60
2023-02-25T22:22:58.049Z,75.53
2023-02-25T22:25:25.136Z,72.96
2023-02-25T22:27:53.721Z,72.48
2023-02-25T22:30:23.431Z,74.83
2023-02-25T22:32:51.402Z,73.51
2023-02-25T22:35:20.861Z,75.01
2023-02-25T22:37:50.754Z,75.43
2023-02-25T22:40:26.477Z,76.38
2023-02-25T22:42:56.184Z,76.64
2023-02-25T22:45:31.724Z,76.93
2023-02-25T22:48:11.504Z,77.31
2023-02-25T22:50:50.774Z,76.68
2023-02-25T22:53:27.172Z,77.34
2023-02-25T22:56:14.444Z,75.99
2023-02-25T22:58:45.744Z,73.26
2023-02-25T23:01:25.676Z,74.64
2023-02-25T23:03:56.949Z,74.70
2023-02-25T23:06:44.675Z,74.80
2023-02-25T23:09:19.523Z,75.34
2023-02-25T23:12:03.050Z,75.56
2023-02-25T23:14:39.519Z,73.64
2023-02-25T23:17:09.404Z,75.01
2023-02-25T23:19:40.941Z,75.55
2023-02-25T23:22:39.032Z,73.45
2023-02-25T23:25:07.221Z,75.86
2023-02-25T23:27:43.083Z,76.25
2023-02-25T23:30:10.804Z,77.04
2023-02-25T23:32:43.915Z,77.29
2023-02-25T23:35:15.124Z,78.42
2023-02-25T23:37:49.001Z,77.94
2023-02-25T23:40:41.238Z,77.15
2023-02-25T23:43:26.095Z,77.88
2023-02-25T23:46:01.152Z,78.44
2023-02-25T23:48:29.690Z,78.34
2023-02-25T23:51:05.927Z,77.19
2023-02-25T23:53:40.525Z,77.51
2023-02-25T23:56:34.215Z,78.01
2023-02-25T23:59:04.493Z,78.25
